createdAt,value
2022-12-15T06:30:29.747Z,97.92
2022-12-15T06:33:34.714Z,97.69
2022-12-15T06:36:38.087Z,96.81
2022-12-15T06:39:44.968Z,96.95
2022-12-15T06:43:01.212Z,96.98
2022-12-15T06:46:35.189Z,97.35
2022-12-15T06:50:02.142Z,97.30
2022-12-15T06:53:05.292Z,95.84
2022-12-15T06:56:16.586Z,95.65
2022-12-15T06:59:19.300Z,96.11
2022-12-15T07:02:31.437Z,95.97
2022-12-15T07:05:51.477Z,94.90
2022-12-15T07:09:21.218Z,94.61
2022-12-15T07:12:25.420Z,95.25
2022-12-15T07:15:28.213Z,95.05
2022-12-15T07:18:31.530Z,95.30
2022-12-15T07:21:34.133Z,95.35
2022-12-15T07:24:37.099Z,94.81
2022-12-15T07:31:30.087Z,94.98
2022-12-15T07:34:36.303Z,94.17
2022-12-15T07:37:56.263Z,94.52
2022-12-15T07:42:01.114Z,94.64
2022-12-15T07:45:16.986Z,94.53
2022-12-15T07:48:22.009Z,94.81
2022-12-15T07:51:24.328Z,94.80
2022-12-15T07:54:26.864Z,94.51
2022-12-15T07:57:29.382Z,94.81
2022-12-15T08:00:32.021Z,94.65
2022-12-15T08:03:35.659Z,93.82
2022-12-15T08:06:38.192Z,94.12
2022-12-15T08:09:40.723Z,93.86
2022-12-15T08:12:43.069Z,93.75
2022-12-15T08:15:46.289Z,93.60
2022-12-15T08:18:48.940Z,93.23
2022-12-15T08:21:52.055Z,93.79
2022-12-15T08:24:54.478Z,93.52
2022-12-15T08:27:57.433Z,93.85
2022-12-15T08:31:08.551Z,93.05
2022-12-15T08:34:11.120Z,93.24
2022-12-15T08:37:14.240Z,93.73
2022-12-15T08:40:16.858Z,93.69
2022-12-15T08:43:27.140Z,93.84
2022-12-15T08:46:31.343Z,93.43
2022-12-15T08:49:35.333Z,93.32
2022-12-15T08:53:13.718Z,93.18
2022-12-15T08:56:18.578Z,93.25
2022-12-15T08:59:24.401Z,93.36
2022-12-15T09:02:27.397Z,94.08
2022-12-15T09:05:42.176Z,93.37
2022-12-15T09:08:48.476Z,92.73
2022-12-15T09:11:54.855Z,92.35
2022-12-15T09:14:58.666Z,92.21
2022-12-15T09:18:03.825Z,92.31
2022-12-15T09:21:18.124Z,92.90
2022-12-15T09:24:35.336Z,91.63
2022-12-15T09:27:55.597Z,91.13
2022-12-15T09:31:15.306Z,91.27
2022-12-15T09:34:28.951Z,91.23
2022-12-15T09:37:32.458Z,90.34
2022-12-15T09:40:34.663Z,89.77
2022-12-15T09:43:46.466Z,90.12
2022-12-15T09:47:15.973Z,90.52
2022-12-15T09:50:24.256Z,90.40
2022-12-15T09:53:53.655Z,90.74
2022-12-15T09:57:33.840Z,90.58
2022-12-15T10:00:55.596Z,89.91
2022-12-15T10:04:30.621Z,89.92
2022-12-15T10:07:50.471Z,90.86
2022-12-15T10:10:58.499Z,90.37
2022-12-15T10:14:27.117Z,90.69
2022-12-15T10:17:42.886Z,91.22
2022-12-15T10:20:45.532Z,91.24
2022-12-15T10:23:52.494Z,91.50
2022-12-15T10:27:24.004Z,91.51
2022-12-15T10:30:26.807Z,91.62
2022-12-15T10:33:36.985Z,91.04
2022-12-15T10:36:53.797Z,90.90
2022-12-15T10:39:56.497Z,90.58
2022-12-15T10:42:59.486Z,90.42
2022-12-15T10:46:14.786Z,90.89
2022-12-15T10:49:25.168Z,91.09
2022-12-15T10:52:34.598Z,90.53
2022-12-15T10:55:50.033Z,90.07
2022-12-15T10:58:55.498Z,90.55
2022-12-15T11:02:26.249Z,89.78
2022-12-15T11:05:28.666Z,90.40
2022-12-15T11:08:32.429Z,90.38
2022-12-15T11:11:54.886Z,90.23
2022-12-15T11:14:57.621Z,90.65
2022-12-15T11:18:13.309Z,90.74
2022-12-15T11:25:33.775Z,90.68
2022-12-15T11:28:52.854Z,90.44
2022-12-15T11:32:01.445Z,90.33
2022-12-15T11:35:19.136Z,91.11
2022-12-15T11:38:27.995Z,91.01
2022-12-15T11:41:42.653Z,91.11
2022-12-15T11:44:56.799Z,91.30
2022-12-15T11:48:10.137Z,91.78
2022-12-15T11:51:22.811Z,91.27
2022-12-15T11:54:28.379Z,91.58
2022-12-15T11:57:53.038Z,92.51
2022-12-15T12:01:33.038Z,92.12
2022-12-15T12:04:44.751Z,91.57
2022-12-15T12:07:53.529Z,91.29
2022-12-15T12:11:15.707Z,91.00
2022-12-15T12:14:39.399Z,90.68
2022-12-15T12:17:48.015Z,91.18
2022-12-15T12:20:56.633Z,91.89
2022-12-15T12:24:23.946Z,92.31
2022-12-15T12:27:48.764Z,93.24
2022-12-15T12:30:56.735Z,93.78
2022-12-15T12:34:08.476Z,93.98
2022-12-15T12:37:40.657Z,94.39
2022-12-15T12:41:10.373Z,93.77
2022-12-15T12:44:26.686Z,94.43
2022-12-15T12:47:37.700Z,94.61
2022-12-15T12:50:50.639Z,94.90
2022-12-15T12:53:54.617Z,95.90
2022-12-15T12:57:12.145Z,95.96
2022-12-15T13:00:19.648Z,96.76
2022-12-15T13:07:43.249Z,96.73
2022-12-15T13:22:12.906Z,95.25
2022-12-15T13:25:53.652Z,95.29
2022-12-15T13:30:04.540Z,95.81
2022-12-15T13:37:54.015Z,97.56
2022-12-15T13:45:21.410Z,99.60
2022-12-15T14:09:32.144Z,100.00
2022-12-15T14:13:16.348Z,100.00
2022-12-15T14:32:43.395Z,100.00
2022-12-15T14:35:57.083Z,100.00
2022-12-15T14:39:14.841Z,100.00
2022-12-15T14:42:34.183Z,100.00
2022-12-15T14:45:44.276Z,100.00
2022-12-15T14:49:33.800Z,100.00
2022-12-15T14:56:42.407Z,100.00
2022-12-15T14:59:46.536Z,100.00
2022-12-15T15:03:11.430Z,96.56
2022-12-15T15:03:30.334Z,100.00
2022-12-15T15:06:41.074Z,100.00
2022-12-15T15:09:48.799Z,100.00
2022-12-15T15:12:55.560Z,100.00
2022-12-15T15:16:14.645Z,100.00
2022-12-15T15:19:39.683Z,100.00
2022-12-15T15:22:46.547Z,100.00
2022-12-15T15:25:55.068Z,100.00
2022-12-15T15:28:58.902Z,100.00
2022-12-15T15:32:17.394Z,100.00
2022-12-15T15:35:23.975Z,100.00
2022-12-15T15:38:34.283Z,100.00
2022-12-15T15:41:42.897Z,100.00
2022-12-15T15:44:48.692Z,100.00
2022-12-15T15:48:03.015Z,100.00
2022-12-15T15:51:10.263Z,100.00
2022-12-15T15:54:18.582Z,100.00
2022-12-15T15:57:28.331Z,100.00
2022-12-15T16:00:34.230Z,100.00
2022-12-15T16:03:42.894Z,100.00
2022-12-15T16:06:47.832Z,100.00
2022-12-15T16:09:54.046Z,100.00
2022-12-15T16:13:01.737Z,100.00
2022-12-15T16:16:18.213Z,100.00
2022-12-15T16:23:18.249Z,100.00
2022-12-15T16:26:54.485Z,100.00
2022-12-15T16:30:00.095Z,100.00
2022-12-15T16:33:10.140Z,100.00
2022-12-15T16:36:26.285Z,100.00
2022-12-15T16:39:38.585Z,100.00
2022-12-15T16:42:56.364Z,100.00
2022-12-15T16:46:12.242Z,100.00
2022-12-15T16:53:04.740Z,100.00
2022-12-15T16:56:15.269Z,100.00
2022-12-15T17:10:46.561Z,100.00
2022-12-15T17:14:22.837Z,100.00
2022-12-15T17:17:38.451Z,100.00
2022-12-15T17:24:23.573Z,100.00
2022-12-15T17:27:38.116Z,100.00
2022-12-15T17:30:44.000Z,100.00
2022-12-15T17:33:57.931Z,100.00
2022-12-15T17:40:33.193Z,100.00
2022-12-15T17:43:42.765Z,100.00
2022-12-15T17:47:06.703Z,100.00
2022-12-15T17:50:14.726Z,100.00
2022-12-15T17:53:31.910Z,100.00
2022-12-15T17:56:41.241Z,100.00
2022-12-15T17:59:56.132Z,100.00
2022-12-15T18:03:19.518Z,100.00
2022-12-15T18:06:34.763Z,100.00
2022-12-15T18:09:51.205Z,100.00
2022-12-15T18:16:56.646Z,100.00
2022-12-15T18:20:23.274Z,100.00
2022-12-15T18:23:35.738Z,100.00
2022-12-15T18:26:47.891Z,100.00
2022-12-15T18:33:42.940Z,100.00
2022-12-15T18:37:02.921Z,100.00
2022-12-15T18:40:18.703Z,100.00
2022-12-15T18:43:27.706Z,100.00
2022-12-15T18:46:33.648Z,100.00
2022-12-15T18:49:39.553Z,100.00
2022-12-15T18:52:44.594Z,100.00
2022-12-15T18:55:49.214Z,100.00
2022-12-15T18:58:58.215Z,100.00
2022-12-15T19:02:07.602Z,100.00
2022-12-15T19:05:32.310Z,100.00
2022-12-15T19:08:39.275Z,100.00
2022-12-15T19:12:18.774Z,100.00
2022-12-15T19:15:30.184Z,100.00
2022-12-15T19:19:00.775Z,100.00
2022-12-15T19:22:35.056Z,100.00
2022-12-15T19:26:01.143Z,100.00
2022-12-15T19:29:31.559Z,100.00
2022-12-15T19:33:04.514Z,100.00
2022-12-15T19:40:14.300Z,100.00
2022-12-15T19:43:55.195Z,100.00
2022-12-15T20:13:39.335Z,100.00
2022-12-15T20:20:38.706Z,100.00
2022-12-15T20:40:40.705Z,100.00
2022-12-15T20:44:03.057Z,100.00
2022-12-15T20:52:33.128Z,100.00
2022-12-15T20:56:19.900Z,100.00
2022-12-15T20:59:27.985Z,100.00
2022-12-15T21:10:23.461Z,100.00
2022-12-15T21:22:44.070Z,100.00
2022-12-15T22:04:04.866Z,100.00
2022-12-15T23:03:30.312Z,100.00
2022-12-15T23:07:03.438Z,100.00
2022-12-15T23:10:39.959Z,100.00
2022-12-15T23:19:12.879Z,100.00
2022-12-15T23:25:40.149Z,100.00
2022-12-15T23:28:52.200Z,100.00
2022-12-15T23:32:00.757Z,100.00
2022-12-15T23:35:06.708Z,100.00
2022-12-15T23:38:17.699Z,100.00
2022-12-15T23:41:22.083Z,100.00
2022-12-15T23:44:25.721Z,100.00
2022-12-15T23:47:30.253Z,100.00
2022-12-15T23:50:37.407Z,100.00
2022-12-15T23:53:43.397Z,100.00
2022-12-15T23:56:47.260Z,100.00
2022-12-15T23:59:51.989Z,100.00
